sensor_id;sensor_type;location;lat;lon;timestamp;temperature;humidity
63976;DHT22;50167;47.958;21.780;2022-11-20T00:01:24;5.73;61.35
63976;DHT22;50167;47.958;21.780;2022-11-20T00:03:53;6.24;58.84
63976;DHT22;50167;47.958;21.780;2022-11-20T00:06:20;5.29;60.84
63976;DHT22;50167;47.958;21.780;2022-11-20T00:09:02;5.21;62.82
63976;DHT22;50167;47.958;21.780;2022-11-20T00:11:30;6.25;59.93
63976;DHT22;50167;47.958;21.780;2022-11-20T00:13:58;6.21;58.38
63976;DHT22;50167;47.958;21.780;2022-11-20T00:16:30;5.18;61.10
63976;DHT22;50167;47.958;21.780;2022-11-20T00:18:56;5.36;63.16
63976;DHT22;50167;47.958;21.780;2022-11-20T00:21:27;6.39;61.86
63976;DHT22;50167;47.958;21.780;2022-11-20T00:23:56;6.87;58.58
63976;DHT22;50167;47.958;21.780;2022-11-20T00:26:25;6.05;58.76
63976;DHT22;50167;47.958;21.780;2022-11-20T00:28:54;5.00;60.56
63976;DHT22;50167;47.958;21.780;2022-11-20T00:31:21;5.49;61.65
63976;DHT22;50167;47.958;21.780;2022-11-20T00:33:47;6.48;59.59
63976;DHT22;50167;47.958;21.780;2022-11-20T00:36:20;6.18;58.33
63976;DHT22;50167;47.958;21.780;2022-11-20T00:38:47;5.18;58.87
63976;DHT22;50167;47.958;21.780;2022-11-20T00:41:15;5.35;61.73
63976;DHT22;50167;47.958;21.780;2022-11-20T00:43:41;5.26;60.27
63976;DHT22;50167;47.958;21.780;2022-11-20T00:46:12;5.26;62.01
63976;DHT22;50167;47.958;21.780;2022-11-20T00:48:38;5.32;60.05
63976;DHT22;50167;47.958;21.780;2022-11-20T00:51:04;5.11;62.81
63976;DHT22;50167;47.958;21.780;2022-11-20T00:53:31;5.96;60.69
63976;DHT22;50167;47.958;21.780;2022-11-20T00:56:03;6.63;60.85
63976;DHT22;50167;47.958;21.780;2022-11-20T00:58:35;7.32;59.73
63976;DHT22;50167;47.958;21.780;2022-11-20T01:01:11;6.87;56.43
63976;DHT22;50167;47.958;21.780;2022-11-20T01:03:42;5.58;59.67
63976;DHT22;50167;47.958;21.780;2022-11-20T01:06:16;5.07;62.29
63976;DHT22;50167;47.958;21.780;2022-11-20T01:08:43;6.12;61.06
63976;DHT22;50167;47.958;21.780;2022-11-20T01:11:14;6.69;58.45
63976;DHT22;50167;47.958;21.780;2022-11-20T01:13:41;5.81;58.07
63976;DHT22;50167;47.958;21.780;2022-11-20T01:16:15;4.81;63.28
63976;DHT22;50167;47.958;21.780;2022-11-20T01:18:45;5.67;62.81
63976;DHT22;50167;47.958;21.780;2022-11-20T01:21:14;6.55;59.85
63976;DHT22;50167;47.958;21.780;2022-11-20T01:23:42;5.97;58.37
63976;DHT22;50167;47.958;21.780;2022-11-20T01:26:13;4.94;62.61
63976;DHT22;50167;47.958;21.780;2022-11-20T01:28:40;5.84;63.59
63976;DHT22;50167;47.958;21.780;2022-11-20T01:31:25;7.10;59.71
63976;DHT22;50167;47.958;21.780;2022-11-20T01:33:55;6.70;57.03
63976;DHT22;50167;47.958;21.780;2022-11-20T01:36:23;5.53;58.71
63976;DHT22;50167;47.958;21.780;2022-11-20T01:38:59;5.19;60.97
63976;DHT22;50167;47.958;21.780;2022-11-20T01:41:29;6.48;63.00
63976;DHT22;50167;47.958;21.780;2022-11-20T01:44:17;7.60;60.82
63976;DHT22;50167;47.958;21.780;2022-11-20T01:47:02;8.27;58.12
63976;DHT22;50167;47.958;21.780;2022-11-20T01:49:46;7.53;54.67
63976;DHT22;50167;47.958;21.780;2022-11-20T01:52:33;6.12;55.52
63976;DHT22;50167;47.958;21.780;2022-11-20T01:55:07;5.14;58.39
63976;DHT22;50167;47.958;21.780;2022-11-20T01:57:34;5.96;63.69
63976;DHT22;50167;47.958;21.780;2022-11-20T02:00:09;7.24;61.99
63976;DHT22;50167;47.958;21.780;2022-11-20T02:02:37;7.08;56.38
63976;DHT22;50167;47.958;21.780;2022-11-20T02:05:17;6.04;55.60
63976;DHT22;50167;47.958;21.780;2022-11-20T02:07:43;5.12;57.25
63976;DHT22;50167;47.958;21.780;2022-11-20T02:10:09;5.83;62.34
63976;DHT22;50167;47.958;21.780;2022-11-20T02:12:35;7.31;63.01
63976;DHT22;50167;47.958;21.780;2022-11-20T02:15:20;8.35;59.81
63976;DHT22;50167;47.958;21.780;2022-11-20T02:17:46;8.03;54.38
63976;DHT22;50167;47.958;21.780;2022-11-20T02:20:14;6.75;56.89
63976;DHT22;50167;47.958;21.780;2022-11-20T02:23:36;5.67;58.88
63976;DHT22;50167;47.958;21.780;2022-11-20T02:25:15;5.15;60.83
63976;DHT22;50167;47.958;21.780;2022-11-20T02:27:41;6.19;62.03
63976;DHT22;50167;47.958;21.780;2022-11-20T02:30:09;7.31;60.54
63976;DHT22;50167;47.958;21.780;2022-11-20T02:32:38;7.92;57.74
63976;DHT22;50167;47.958;21.780;2022-11-20T02:35:35;7.39;55.97
63976;DHT22;50167;47.958;21.780;2022-11-20T02:37:39;6.10;56.38
63976;DHT22;50167;47.958;21.780;2022-11-20T02:40:08;5.10;61.71
63976;DHT22;50167;47.958;21.780;2022-11-20T02:42:35;5.77;62.41
63976;DHT22;50167;47.958;21.780;2022-11-20T02:45:02;6.86;60.25
63976;DHT22;50167;47.958;21.780;2022-11-20T02:47:28;7.06;56.89
63976;DHT22;50167;47.958;21.780;2022-11-20T02:49:54;5.87;57.86
63976;DHT22;50167;47.958;21.780;2022-11-20T02:52:20;5.00;62.32
63976;DHT22;50167;47.958;21.780;2022-11-20T02:54:46;5.79;62.86
63976;DHT22;50167;47.958;21.780;2022-11-20T02:57:12;7.01;61.62
63976;DHT22;50167;47.958;21.780;2022-11-20T02:59:39;7.89;60.01
63976;DHT22;50167;47.958;21.780;2022-11-20T03:02:05;7.53;55.57
63976;DHT22;50167;47.958;21.780;2022-11-20T03:04:31;6.31;55.36
63976;DHT22;50167;47.958;21.780;2022-11-20T03:06:57;5.26;59.10
63976;DHT22;50167;47.958;21.780;2022-11-20T03:09:23;5.50;62.38
63976;DHT22;50167;47.958;21.780;2022-11-20T03:11:49;5.46;60.26
63976;DHT22;50167;47.958;21.780;2022-11-20T03:14:16;5.16;62.89
63976;DHT22;50167;47.958;21.780;2022-11-20T03:16:42;6.29;61.75
63976;DHT22;50167;47.958;21.780;2022-11-20T03:19:08;7.25;58.68
63976;DHT22;50167;47.958;21.780;2022-11-20T03:21:35;6.50;57.80
63976;DHT22;50167;47.958;21.780;2022-11-20T03:24:02;5.42;59.31
63976;DHT22;50167;47.958;21.780;2022-11-20T03:26:28;5.15;62.90
63976;DHT22;50167;47.958;21.780;2022-11-20T03:29:00;6.28;60.88
63976;DHT22;50167;47.958;21.780;2022-11-20T03:31:30;6.96;57.33
63976;DHT22;50167;47.958;21.780;2022-11-20T03:33:58;6.12;58.13
63976;DHT22;50167;47.958;21.780;2022-11-20T03:36:26;5.11;57.52
63976;DHT22;50167;47.958;21.780;2022-11-20T03:38:54;5.49;61.22
63976;DHT22;50167;47.958;21.780;2022-11-20T03:41:26;5.18;59.82
63976;DHT22;50167;47.958;21.780;2022-11-20T03:43:56;5.59;63.11
63976;DHT22;50167;47.958;21.780;2022-11-20T03:46:23;6.45;59.46
63976;DHT22;50167;47.958;21.780;2022-11-20T03:48:50;6.15;58.18
63976;DHT22;50167;47.958;21.780;2022-11-20T03:51:21;5.07;61.68
63976;DHT22;50167;47.958;21.780;2022-11-20T03:53:49;5.43;62.03
63976;DHT22;50167;47.958;21.780;2022-11-20T03:56:18;6.35;59.96
63976;DHT22;50167;47.958;21.780;2022-11-20T03:58:44;6.26;58.10
63976;DHT22;50167;47.958;21.780;2022-11-20T04:01:21;5.38;56.73
63976;DHT22;50167;47.958;21.780;2022-11-20T04:03:48;5.35;61.06
63976;DHT22;50167;47.958;21.780;2022-11-20T04:06:21;5.52;59.46
63976;DHT22;50167;47.958;21.780;2022-11-20T04:08:48;5.08;61.41
63976;DHT22;50167;47.958;21.780;2022-11-20T04:11:24;5.87;61.93
63976;DHT22;50167;47.958;21.780;2022-11-20T04:14:02;6.98;61.82
63976;DHT22;50167;47.958;21.780;2022-11-20T04:16:27;7.38;56.98
63976;DHT22;50167;47.958;21.780;2022-11-20T04:18:56;6.36;57.19
63976;DHT22;50167;47.958;21.780;2022-11-20T04:21:23;5.32;59.64
63976;DHT22;50167;47.958;21.780;2022-11-20T04:23:51;5.26;62.49
63976;DHT22;50167;47.958;21.780;2022-11-20T04:26:19;6.33;60.74
63976;DHT22;50167;47.958;21.780;2022-11-20T04:28:45;6.97;57.29
63976;DHT22;50167;47.958;21.780;2022-11-20T04:31:15;6.21;57.86
63976;DHT22;50167;47.958;21.780;2022-11-20T04:33:42;5.14;61.31
63976;DHT22;50167;47.958;21.780;2022-11-20T04:36:22;5.60;62.82
63976;DHT22;50167;47.958;21.780;2022-11-20T04:39:01;6.79;61.07
63976;DHT22;50167;47.958;21.780;2022-11-20T04:41:26;6.60;57.40
63976;DHT22;50167;47.958;21.780;2022-11-20T04:43:56;5.43;60.30
63976;DHT22;50167;47.958;21.780;2022-11-20T04:46:26;5.22;63.30
63976;DHT22;50167;47.958;21.780;2022-11-20T04:48:53;6.50;64.28
63976;DHT22;50167;47.958;21.780;2022-11-20T04:51:19;7.24;58.44
63976;DHT22;50167;47.958;21.780;2022-11-20T04:53:45;6.80;56.90
63976;DHT22;50167;47.958;21.780;2022-11-20T04:56:13;5.62;59.67
63976;DHT22;50167;47.958;21.780;2022-11-20T04:58:39;5.11;61.33
63976;DHT22;50167;47.958;21.780;2022-11-20T05:01:13;5.49;60.63
63976;DHT22;50167;47.958;21.780;2022-11-20T05:03:41;5.08;62.70
63976;DHT22;50167;47.958;21.780;2022-11-20T05:06:09;6.10;62.88
63976;DHT22;50167;47.958;21.780;2022-11-20T05:08:35;6.70;59.77
63976;DHT22;50167;47.958;21.780;2022-11-20T05:11:09;5.93;58.55
63976;DHT22;50167;47.958;21.780;2022-11-20T05:13:36;5.00;62.60
63976;DHT22;50167;47.958;21.780;2022-11-20T05:16:11;5.79;64.71
63976;DHT22;50167;47.958;21.780;2022-11-20T05:18:36;6.76;60.34
63976;DHT22;50167;47.958;21.780;2022-11-20T05:21:03;6.65;57.65
63976;DHT22;50167;47.958;21.780;2022-11-20T05:23:31;5.59;59.27
63976;DHT22;50167;47.958;21.780;2022-11-20T05:25:58;5.07;62.62
63976;DHT22;50167;47.958;21.780;2022-11-20T05:28:26;6.08;62.72
63976;DHT22;50167;47.958;21.780;2022-11-20T05:30:52;6.66;58.75
63976;DHT22;50167;47.958;21.780;2022-11-20T05:33:18;5.90;59.63
63976;DHT22;50167;47.958;21.780;2022-11-20T05:35:45;5.03;59.19
63976;DHT22;50167;47.958;21.780;2022-11-20T05:38:11;5.66;62.17
63976;DHT22;50167;47.958;21.780;2022-11-20T05:40:37;6.67;61.70
63976;DHT22;50167;47.958;21.780;2022-11-20T05:43:03;6.90;58.03
63976;DHT22;50167;47.958;21.780;2022-11-20T05:45:29;5.94;59.37
63976;DHT22;50167;47.958;21.780;2022-11-20T05:47:58;5.01;61.37
63976;DHT22;50167;47.958;21.780;2022-11-20T05:50:27;5.83;62.30
63976;DHT22;50167;47.958;21.780;2022-11-20T05:52:54;6.79;60.64
63976;DHT22;50167;47.958;21.780;2022-11-20T05:55:20;7.53;59.76
63976;DHT22;50167;47.958;21.780;2022-11-20T05:57:46;7.01;56.85
63976;DHT22;50167;47.958;21.780;2022-11-20T06:00:14;5.79;59.83
63976;DHT22;50167;47.958;21.780;2022-11-20T06:02:41;5.03;62.38
63976;DHT22;50167;47.958;21.780;2022-11-20T06:05:08;5.94;62.25
63976;DHT22;50167;47.958;21.780;2022-11-20T06:07:34;6.77;59.30
63976;DHT22;50167;47.958;21.780;2022-11-20T06:10:01;6.70;57.88
63976;DHT22;50167;47.958;21.780;2022-11-20T06:12:30;5.59;59.03
63976;DHT22;50167;47.958;21.780;2022-11-20T06:14:57;5.11;61.87
63976;DHT22;50167;47.958;21.780;2022-11-20T06:17:22;6.19;63.15
63976;DHT22;50167;47.958;21.780;2022-11-20T06:19:48;7.08;60.72
63976;DHT22;50167;47.958;21.780;2022-11-20T06:22:14;7.42;57.94
63976;DHT22;50167;47.958;21.780;2022-11-20T06:24:40;6.63;55.62
63976;DHT22;50167;47.958;21.780;2022-11-20T06:27:08;5.62;57.38
63976;DHT22;50167;47.958;21.780;2022-11-20T06:29:34;5.08;60.63
63976;DHT22;50167;47.958;21.780;2022-11-20T06:32:01;6.10;61.77
63976;DHT22;50167;47.958;21.780;2022-11-20T06:34:27;7.12;59.43
63976;DHT22;50167;47.958;21.780;2022-11-20T06:36:55;7.06;56.84
63976;DHT22;50167;47.958;21.780;2022-11-20T06:39:21;5.97;58.65
63976;DHT22;50167;47.958;21.780;2022-11-20T06:41:47;5.16;57.85
63976;DHT22;50167;47.958;21.780;2022-11-20T06:44:13;5.79;64.52
63976;DHT22;50167;47.958;21.780;2022-11-20T06:46:39;7.11;63.32
63976;DHT22;50167;47.958;21.780;2022-11-20T06:49:05;8.08;59.82
63976;DHT22;50167;47.958;21.780;2022-11-20T06:51:31;8.01;55.31
63976;DHT22;50167;47.958;21.780;2022-11-20T06:53:58;6.96;55.62
63976;DHT22;50167;47.958;21.780;2022-11-20T06:56:24;5.97;59.10
63976;DHT22;50167;47.958;21.780;2022-11-20T06:58:50;5.24;63.44
63976;DHT22;50167;47.958;21.780;2022-11-20T07:01:16;6.12;64.38
63976;DHT22;50167;47.958;21.780;2022-11-20T07:03:43;7.41;62.73
63976;DHT22;50167;47.958;21.780;2022-11-20T07:06:10;8.24;59.87
63976;DHT22;50167;47.958;21.780;2022-11-20T07:08:37;8.13;55.85
63976;DHT22;50167;47.958;21.780;2022-11-20T07:11:06;7.14;54.79
63976;DHT22;50167;47.958;21.780;2022-11-20T07:13:33;6.31;56.04
63976;DHT22;50167;47.958;21.780;2022-11-20T07:16:06;5.71;58.36
63976;DHT22;50167;47.958;21.780;2022-11-20T07:18:33;5.26;62.66
63976;DHT22;50167;47.958;21.780;2022-11-20T07:21:06;6.01;65.96
63976;DHT22;50167;47.958;21.780;2022-11-20T07:23:33;7.57;63.53
63976;DHT22;50167;47.958;21.780;2022-11-20T07:26:09;8.39;60.97
63976;DHT22;50167;47.958;21.780;2022-11-20T07:28:36;8.31;56.36
63976;DHT22;50167;47.958;21.780;2022-11-20T07:31:03;7.32;55.84
63976;DHT22;50167;47.958;21.780;2022-11-20T07:33:30;6.33;60.56
63976;DHT22;50167;47.958;21.780;2022-11-20T07:35:59;5.96;62.89
63976;DHT22;50167;47.958;21.780;2022-11-20T07:38:25;7.21;61.82
63976;DHT22;50167;47.958;21.780;2022-11-20T07:40:56;8.18;59.41
63976;DHT22;50167;47.958;21.780;2022-11-20T07:43:23;7.79;56.10
63976;DHT22;50167;47.958;21.780;2022-11-20T07:45:58;6.69;60.25
63976;DHT22;50167;47.958;21.780;2022-11-20T07:48:25;5.89;59.42
63976;DHT22;50167;47.958;21.780;2022-11-20T07:50:56;5.59;64.13
63976;DHT22;50167;47.958;21.780;2022-11-20T07:53:23;6.96;63.65
63976;DHT22;50167;47.958;21.780;2022-11-20T07:55:50;7.97;59.58
63976;DHT22;50167;47.958;21.780;2022-11-20T07:58:19;7.86;57.14
63976;DHT22;50167;47.958;21.780;2022-11-20T08:00:46;6.87;59.72
63976;DHT22;50167;47.958;21.780;2022-11-20T08:03:12;5.97;61.73
63976;DHT22;50167;47.958;21.780;2022-11-20T08:05:38;6.26;64.37
63976;DHT22;50167;47.958;21.780;2022-11-20T08:08:04;7.57;60.16
63976;DHT22;50167;47.958;21.780;2022-11-20T08:10:30;8.55;58.42
63976;DHT22;50167;47.958;21.780;2022-11-20T08:12:56;8.18;56.72
63976;DHT22;50167;47.958;21.780;2022-11-20T08:15:41;6.93;59.17
63976;DHT22;50167;47.958;21.780;2022-11-20T08:18:11;6.14;62.38
63976;DHT22;50167;47.958;21.780;2022-11-20T08:20:38;6.66;64.31
63976;DHT22;50167;47.958;21.780;2022-11-20T08:23:07;8.13;62.94
63976;DHT22;50167;47.958;21.780;2022-11-20T08:25:35;9.24;59.81
63976;DHT22;50167;47.958;21.780;2022-11-20T08:28:06;9.06;55.95
63976;DHT22;50167;47.958;21.780;2022-11-20T08:30:33;8.03;54.50
63976;DHT22;50167;47.958;21.780;2022-11-20T08:33:08;7.29;56.28
63976;DHT22;50167;47.958;21.780;2022-11-20T08:35:38;6.76;57.62
63976;DHT22;50167;47.958;21.780;2022-11-20T08:38:06;6.38;59.21
63976;DHT22;50167;47.958;21.780;2022-11-20T08:40:33;6.10;60.34
63976;DHT22;50167;47.958;21.780;2022-11-20T08:42:59;5.86;61.57
63976;DHT22;50167;47.958;21.780;2022-11-20T08:45:25;6.72;66.07
63976;DHT22;50167;47.958;21.780;2022-11-20T08:47:51;8.35;62.45
63976;DHT22;50167;47.958;21.780;2022-11-20T08:50:17;9.28;58.52
63976;DHT22;50167;47.958;21.780;2022-11-20T08:52:44;9.00;56.72
63976;DHT22;50167;47.958;21.780;2022-11-20T08:55:10;7.84;59.78
63976;DHT22;50167;47.958;21.780;2022-11-20T08:57:37;7.10;59.19
63976;DHT22;50167;47.958;21.780;2022-11-20T09:00:07;6.53;61.41
63976;DHT22;50167;47.958;21.780;2022-11-20T09:02:33;6.31;64.49
63976;DHT22;50167;47.958;21.780;2022-11-20T09:04:59;7.67;63.43
63976;DHT22;50167;47.958;21.780;2022-11-20T09:07:29;8.96;60.56
63976;DHT22;50167;47.958;21.780;2022-11-20T09:09:56;9.85;58.69
63976;DHT22;50167;47.958;21.780;2022-11-20T09:12:22;9.55;55.60
63976;DHT22;50167;47.958;21.780;2022-11-20T09:14:48;8.48;57.37
63976;DHT22;50167;47.958;21.780;2022-11-20T09:17:14;7.62;60.04
63976;DHT22;50167;47.958;21.780;2022-11-20T09:19:40;6.96;62.94
63976;DHT22;50167;47.958;21.780;2022-11-20T09:22:07;7.96;61.21
63976;DHT22;50167;47.958;21.780;2022-11-20T09:24:33;8.84;57.68
63976;DHT22;50167;47.958;21.780;2022-11-20T09:27:02;8.33;56.39
63976;DHT22;50167;47.958;21.780;2022-11-20T09:29:29;7.50;60.32
63976;DHT22;50167;47.958;21.780;2022-11-20T09:31:55;6.83;63.11
63976;DHT22;50167;47.958;21.780;2022-11-20T09:34:21;7.66;63.08
63976;DHT22;50167;47.958;21.780;2022-11-20T09:36:47;9.04;59.48
63976;DHT22;50167;47.958;21.780;2022-11-20T09:39:13;9.11;56.60
63976;DHT22;50167;47.958;21.780;2022-11-20T09:42:08;8.22;57.45
63976;DHT22;50167;47.958;21.780;2022-11-20T09:44:55;7.35;61.77
63976;DHT22;50167;47.958;21.780;2022-11-20T09:47:48;6.77;63.15
63976;DHT22;50167;47.958;21.780;2022-11-20T09:50:28;7.86;63.72
63976;DHT22;50167;47.958;21.780;2022-11-20T09:53:08;9.24;61.48
63976;DHT22;50167;47.958;21.780;2022-11-20T09:55:31;8.77;58.15
63976;DHT22;50167;47.958;21.780;2022-11-20T09:57:58;8.00;58.97
63976;DHT22;50167;47.958;21.780;2022-11-20T10:00:26;7.38;61.76
63976;DHT22;50167;47.958;21.780;2022-11-20T10:05:48;9.07;61.57
63976;DHT22;50167;47.958;21.780;2022-11-20T10:11:21;8.62;57.92
63976;DHT22;50167;47.958;21.780;2022-11-20T10:19:44;8.43;65.19
63976;DHT22;50167;47.958;21.780;2022-11-20T10:25:18;10.04;54.97
63976;DHT22;50167;47.958;21.780;2022-11-20T10:28:11;9.18;55.39
63976;DHT22;50167;47.958;21.780;2022-11-20T10:30:41;8.43;58.47
63976;DHT22;50167;47.958;21.780;2022-11-20T10:33:17;7.87;60.74
63976;DHT22;50167;47.958;21.780;2022-11-20T10:38:40;8.39;64.52
63976;DHT22;50167;47.958;21.780;2022-11-20T10:41:03;10.14;61.89
63976;DHT22;50167;47.958;21.780;2022-11-20T10:43:58;11.15;56.89
63976;DHT22;50167;47.958;21.780;2022-11-20T10:46:22;10.97;52.68
63976;DHT22;50167;47.958;21.780;2022-11-20T10:48:50;10.00;54.11
63976;DHT22;50167;47.958;21.780;2022-11-20T10:51:37;9.25;55.39
63976;DHT22;50167;47.958;21.780;2022-11-20T10:54:31;8.57;59.06
63976;DHT22;50167;47.958;21.780;2022-11-20T10:57:00;7.98;61.30
63976;DHT22;50167;47.958;21.780;2022-11-20T11:02:31;9.98;59.90
63976;DHT22;50167;47.958;21.780;2022-11-20T11:04:53;10.36;55.54
63976;DHT22;50167;47.958;21.780;2022-11-20T11:07:37;9.63;56.30
63976;DHT22;50167;47.958;21.780;2022-11-20T11:10:00;8.96;57.00
63976;DHT22;50167;47.958;21.780;2022-11-20T11:12:28;8.56;57.40
63976;DHT22;50167;47.958;21.780;2022-11-20T11:14:57;8.36;58.25
63976;DHT22;50167;47.958;21.780;2022-11-20T11:17:32;8.22;59.36
63976;DHT22;50167;47.958;21.780;2022-11-20T11:20:22;8.05;59.26
63976;DHT22;50167;47.958;21.780;2022-11-20T11:22:59;7.96;59.28
63976;DHT22;50167;47.958;21.780;2022-11-20T11:28:19;7.97;60.98
63976;DHT22;50167;47.958;21.780;2022-11-20T11:30:46;7.98;60.83
63976;DHT22;50167;47.958;21.780;2022-11-20T11:33:30;8.17;63.75
63976;DHT22;50167;47.958;21.780;2022-11-20T11:36:04;10.08;65.99
63976;DHT22;50167;47.958;21.780;2022-11-20T11:38:38;11.80;57.88
63976;DHT22;50167;47.958;21.780;2022-11-20T11:41:07;11.90;54.02
63976;DHT22;50167;47.958;21.780;2022-11-20T11:43:36;11.07;52.49
63976;DHT22;50167;47.958;21.780;2022-11-20T11:46:33;10.35;54.16
63976;DHT22;50167;47.958;21.780;2022-11-20T11:52:00;9.58;55.92
63976;DHT22;50167;47.958;21.780;2022-11-20T11:54:49;9.35;60.43
63976;DHT22;50167;47.958;21.780;2022-11-20T12:00:16;8.87;58.46
63976;DHT22;50167;47.958;21.780;2022-11-20T12:05:38;8.56;60.70
63976;DHT22;50167;47.958;21.780;2022-11-20T12:08:36;8.49;61.05
63976;DHT22;50167;47.958;21.780;2022-11-20T12:11:20;8.42;61.79
63976;DHT22;50167;47.958;21.780;2022-11-20T12:14:21;8.32;61.98
63976;DHT22;50167;47.958;21.780;2022-11-20T12:16:51;9.03;64.14
63976;DHT22;50167;47.958;21.780;2022-11-20T12:19:19;10.76;59.15
63976;DHT22;50167;47.958;21.780;2022-11-20T12:25:18;10.21;55.65
63976;DHT22;50167;47.958;21.780;2022-11-20T12:31:13;9.28;57.50
63976;DHT22;50167;47.958;21.780;2022-11-20T12:39:43;8.79;58.36
63976;DHT22;50167;47.958;21.780;2022-11-20T12:42:44;8.63;59.57
63976;DHT22;50167;47.958;21.780;2022-11-20T12:45:54;8.48;59.66
63976;DHT22;50167;47.958;21.780;2022-11-20T12:57:24;9.46;71.16
63976;DHT22;50167;47.958;21.780;2022-11-20T13:00:07;11.52;65.32
63976;DHT22;50167;47.958;21.780;2022-11-20T13:05:43;12.49;51.34
63976;DHT22;50167;47.958;21.780;2022-11-20T13:08:19;11.45;51.66
63976;DHT22;50167;47.958;21.780;2022-11-20T13:11:01;10.75;53.30
63976;DHT22;50167;47.958;21.780;2022-11-20T13:19:27;9.25;56.91
63976;DHT22;50167;47.958;21.780;2022-11-20T13:21:54;8.93;57.03
63976;DHT22;50167;47.958;21.780;2022-11-20T13:24:25;8.64;57.57
63976;DHT22;50167;47.958;21.780;2022-11-20T13:27:17;8.41;58.85
63976;DHT22;50167;47.958;21.780;2022-11-20T13:29:58;8.22;59.31
63976;DHT22;50167;47.958;21.780;2022-11-20T13:32:20;8.11;60.24
63976;DHT22;50167;47.958;21.780;2022-11-20T13:34:58;7.94;60.82
63976;DHT22;50167;47.958;21.780;2022-11-20T13:37:37;7.87;61.77
63976;DHT22;50167;47.958;21.780;2022-11-20T13:40:20;8.84;66.66
63976;DHT22;50167;47.958;21.780;2022-11-20T13:42:55;10.69;64.59
63976;DHT22;50167;47.958;21.780;2022-11-20T13:45:31;11.86;59.00
63976;DHT22;50167;47.958;21.780;2022-11-20T13:48:04;11.86;54.45
63976;DHT22;50167;47.958;21.780;2022-11-20T13:51:01;10.89;54.02
63976;DHT22;50167;47.958;21.780;2022-11-20T14:02:25;8.79;59.48
63976;DHT22;50167;47.958;21.780;2022-11-20T14:04:55;8.49;60.98
63976;DHT22;50167;47.958;21.780;2022-11-20T14:07:27;8.25;60.84
63976;DHT22;50167;47.958;21.780;2022-11-20T14:09:55;8.00;63.89
63976;DHT22;50167;47.958;21.780;2022-11-20T14:12:30;9.14;66.56
63976;DHT22;50167;47.958;21.780;2022-11-20T14:14:56;10.76;64.17
63976;DHT22;50167;47.958;21.780;2022-11-20T14:17:30;11.68;60.25
63976;DHT22;50167;47.958;21.780;2022-11-20T14:20:11;11.61;55.40
63976;DHT22;50167;47.958;21.780;2022-11-20T14:22:37;10.59;55.81
63976;DHT22;50167;47.958;21.780;2022-11-20T14:27:45;9.31;58.81
63976;DHT22;50167;47.958;21.780;2022-11-20T14:30:18;8.83;60.22
63976;DHT22;50167;47.958;21.780;2022-11-20T14:32:46;8.42;62.31
63976;DHT22;50167;47.958;21.780;2022-11-20T14:35:34;9.18;66.87
63976;DHT22;50167;47.958;21.780;2022-11-20T14:38:00;11.06;62.46
63976;DHT22;50167;47.958;21.780;2022-11-20T14:40:33;12.07;59.17
63976;DHT22;50167;47.958;21.780;2022-11-20T14:43:20;11.82;55.17
63976;DHT22;50167;47.958;21.780;2022-11-20T14:45:54;10.56;56.50
63976;DHT22;50167;47.958;21.780;2022-11-20T14:48:19;9.67;58.20
63976;DHT22;50167;47.958;21.780;2022-11-20T14:50:46;8.94;61.66
63976;DHT22;50167;47.958;21.780;2022-11-20T14:53:22;8.38;62.67
63976;DHT22;50167;47.958;21.780;2022-11-20T14:55:44;9.15;68.15
63976;DHT22;50167;47.958;21.780;2022-11-20T14:58:25;10.66;64.81
63976;DHT22;50167;47.958;21.780;2022-11-20T15:01:01;11.85;60.41
63976;DHT22;50167;47.958;21.780;2022-11-20T15:03:37;12.47;58.30
63976;DHT22;50167;47.958;21.780;2022-11-20T15:06:11;11.99;54.77
63976;DHT22;50167;47.958;21.780;2022-11-20T15:08:38;10.84;56.13
63976;DHT22;50167;47.958;21.780;2022-11-20T15:11:17;10.01;59.44
63976;DHT22;50167;47.958;21.780;2022-11-20T15:13:44;9.20;60.88
63976;DHT22;50167;47.958;21.780;2022-11-20T15:16:21;8.64;62.18
63976;DHT22;50167;47.958;21.780;2022-11-20T15:18:49;9.31;67.42
63976;DHT22;50167;47.958;21.780;2022-11-20T15:21:18;10.75;64.37
63976;DHT22;50167;47.958;21.780;2022-11-20T15:23:45;11.68;60.95
63976;DHT22;50167;47.958;21.780;2022-11-20T15:26:14;12.26;58.20
63976;DHT22;50167;47.958;21.780;2022-11-20T15:28:43;11.80;55.39
63976;DHT22;50167;47.958;21.780;2022-11-20T15:31:16;10.62;56.63
63976;DHT22;50167;47.958;21.780;2022-11-20T15:33:42;9.66;58.47
63976;DHT22;50167;47.958;21.780;2022-11-20T15:36:09;9.04;60.35
63976;DHT22;50167;47.958;21.780;2022-11-20T15:38:36;8.53;61.77
63976;DHT22;50167;47.958;21.780;2022-11-20T15:41:02;9.03;66.63
63976;DHT22;50167;47.958;21.780;2022-11-20T15:43:29;10.42;65.98
63976;DHT22;50167;47.958;21.780;2022-11-20T15:45:59;11.38;63.20
63976;DHT22;50167;47.958;21.780;2022-11-20T15:48:30;12.04;59.79
63976;DHT22;50167;47.958;21.780;2022-11-20T15:51:20;11.76;55.78
63976;DHT22;50167;47.958;21.780;2022-11-20T15:53:43;10.51;56.35
63976;DHT22;50167;47.958;21.780;2022-11-20T15:56:12;9.65;58.22
63976;DHT22;50167;47.958;21.780;2022-11-20T15:58:39;8.96;60.19
63976;DHT22;50167;47.958;21.780;2022-11-20T16:01:12;8.39;62.32
63976;DHT22;50167;47.958;21.780;2022-11-20T16:03:39;9.01;67.22
63976;DHT22;50167;47.958;21.780;2022-11-20T16:06:05;10.49;64.18
63976;DHT22;50167;47.958;21.780;2022-11-20T16:08:31;11.48;59.21
63976;DHT22;50167;47.958;21.780;2022-11-20T16:10:57;11.18;56.24
63976;DHT22;50167;47.958;21.780;2022-11-20T16:13:23;10.10;56.87
63976;DHT22;50167;47.958;21.780;2022-11-20T16:16:22;9.07;59.14
63976;DHT22;50167;47.958;21.780;2022-11-20T16:18:49;8.35;59.95
63976;DHT22;50167;47.958;21.780;2022-11-20T16:21:16;7.87;61.53
63976;DHT22;50167;47.958;21.780;2022-11-20T16:23:42;8.28;65.46
63976;DHT22;50167;47.958;21.780;2022-11-20T16:26:13;9.72;66.00
63976;DHT22;50167;47.958;21.780;2022-11-20T16:28:40;10.79;61.58
63976;DHT22;50167;47.958;21.780;2022-11-20T16:31:15;11.30;58.86
63976;DHT22;50167;47.958;21.780;2022-11-20T16:33:39;10.93;55.73
63976;DHT22;50167;47.958;21.780;2022-11-20T16:36:13;9.77;56.22
63976;DHT22;50167;47.958;21.780;2022-11-20T16:38:39;8.81;57.62
63976;DHT22;50167;47.958;21.780;2022-11-20T16:41:06;8.15;59.37
63976;DHT22;50167;47.958;21.780;2022-11-20T16:43:34;7.57;61.07
63976;DHT22;50167;47.958;21.780;2022-11-20T16:46:03;7.10;62.02
63976;DHT22;50167;47.958;21.780;2022-11-20T16:48:30;7.74;68.03
63976;DHT22;50167;47.958;21.780;2022-11-20T16:50:56;9.17;66.75
63976;DHT22;50167;47.958;21.780;2022-11-20T16:53:22;10.24;63.94
63976;DHT22;50167;47.958;21.780;2022-11-20T16:55:48;10.83;61.45
63976;DHT22;50167;47.958;21.780;2022-11-20T16:58:14;11.25;58.15
63976;DHT22;50167;47.958;21.780;2022-11-20T17:00:41;10.72;54.83
63976;DHT22;50167;47.958;21.780;2022-11-20T17:03:08;9.43;55.83